Flight Track Log - Related Links

Times and Time Zones

All times are in EDT time to prevent confusion due to time zone crossing. See the UAL1249 flight status page for this flight to view local times or setup timezone preferences in your user account.

Time Position Orientation Groundspeed Altitude Reporting Facility
EDT Latitude Longitude Course Direction KTS MPH feet Rate Location/Type
Fri 10:45:13 AM 39.8610 -104.6790 292° West 32 37  Level FlightAware ADS-B
Fri 10:45:25 AM 39.8610 -104.6800 270° West 31 36 861 Level FlightAware ADS-B
Fri 10:51:00 AM 39.9092 -104.4061 101° East  Level Estimated
Fri 10:51:28 AM 39.8700 -104.6960 101° East 165 190  Level FlightAware ADS-B
Fri 10:51:50 AM 39.8903 -104.6960 360° North 188 216 5,700 11,806 Climbing FlightAware ADS-B
Fri 10:51:59 AM 39.8984 -104.6960 360° North 191 220 6,100 2,333 Climbing FlightAware ADS-B
Fri 10:52:08 AM 39.9065 -104.6950 North 197 227 6,400 1,500 Climbing FlightAware ADS-B
Fri 10:52:11 AM 39.9099 -104.6940 13° North 203 234 6,400 750 Level FlightAware ADS-B
Fri 10:52:16 AM 39.9137 -104.6930 11° North 208 239 6,500 1,500 Climbing FlightAware ADS-B
Fri 10:52:19 AM 39.9166 -104.6920 15° North 212 244 6,600 2,000 Climbing FlightAware ADS-B
Fri 10:52:22 AM 39.9196 -104.6900 27° Northeast 215 247 6,700 1,846 Climbing FlightAware ADS-B
Fri 10:52:32 AM 39.9283 -104.6820 35° Northeast 223 257 7,000 1,500 Climbing FlightAware ADS-B
Fri 10:52:42 AM 39.9371 -104.6740 35° Northeast 232 267 7,200 2,308 Climbing FlightAware ADS-B
Fri 10:52:58 AM 39.9507 -104.6610 36° Northeast 232 267 8,000 2,743 Climbing FlightAware ADS-B
Fri 10:53:17 AM 39.9675 -104.6460 34° Northeast 229 264 8,800 1,941 Climbing FlightAware ADS-B
Fri 10:53:32 AM 39.9817 -104.6330 35° Northeast 253 291 9,100 1,143 Climbing FlightAware ADS-B
Fri 10:53:38 AM 39.9873 -104.6280 34° Northeast 259 298 9,200 1,800 Climbing FlightAware ADS-B
Fri 10:53:42 AM 39.9907 -104.6250 34° Northeast 261 300 9,400 2,571 Climbing FlightAware ADS-B
Fri 10:53:45 AM 39.9940 -104.6210 43° Northeast 265 305 9,500 1,333 Climbing FlightAware ADS-B
Fri 10:53:51 AM 39.9989 -104.6140 48° Northeast 269 310 9,600 1,091 Climbing FlightAware ADS-B
Fri 10:53:56 AM 40.0022 -104.6080 54° Northeast 274 315 9,700 1,500 Climbing FlightAware ADS-B
Fri 10:53:59 AM 40.0043 -104.6030 61° Northeast 276 318 9,800 2,000 Climbing FlightAware ADS-B
Fri 10:54:05 AM 40.0066 -104.5940 72° East 279 321 10,000 2,308 Climbing FlightAware ADS-B
Fri 10:54:12 AM 40.0079 -104.5820 82° East 279 321 10,300 2,400 Climbing FlightAware ADS-B
Fri 10:54:15 AM 40.0077 -104.5770 93° East 278 320 10,400 3,000 Climbing FlightAware ADS-B
Fri 10:54:22 AM 40.0062 -104.5660 100° East 276 318 10,800 3,000 Climbing FlightAware ADS-B
Fri 10:54:29 AM 40.0031 -104.5550 110° East 277 319 11,100 2,182 Climbing FlightAware ADS-B
Fri 10:54:33 AM 40.0009 -104.5480 112° Southeast 281 323 11,200 1,400 Climbing FlightAware ADS-B
Fri 10:54:59 AM 39.9838 -104.5090 120° Southeast 307 353 11,800 1,143 Climbing FlightAware ADS-B
Fri 10:55:15 AM 39.9730 -104.4820 118° Southeast 326 375 12,000 1,250 Climbing FlightAware ADS-B
Fri 10:55:47 AM 39.9532 -104.4210 113° Southeast 354 407 12,800 2,123 Climbing FlightAware ADS-B
Fri 10:56:20 AM 39.9329 -104.3560 112° Southeast 359 413 14,300 2,190 Climbing FlightAware ADS-B
Fri 10:56:50 AM 39.9137 -104.2940 112° Southeast 379 436 15,100 1,800 Climbing FlightAware ADS-B
Fri 10:57:20 AM 39.8935 -104.2290 112° Southeast 389 448 16,100 2,000 Climbing FlightAware ADS-B
Fri 10:57:50 AM 39.8726 -104.1630 112° Southeast 399 459 17,100 2,100 Climbing FlightAware ADS-B
Fri 10:58:20 AM 39.8513 -104.0950 112° Southeast 406 467 18,200 2,066 Climbing FlightAware ADS-B
Fri 10:58:51 AM 39.8294 -104.0260 112° Southeast 410 472 19,200 1,869 Climbing FlightAware ADS-B
Fri 10:59:21 AM 39.8071 -103.9560 113° Southeast 417 480 20,100 1,574 Climbing FlightAware ADS-B
Fri 10:59:52 AM 39.7841 -103.8840 113° Southeast 431 496 20,800 984 Climbing FlightAware ADS-B
Fri 11:00:22 AM 39.7602 -103.8100 113° Southeast 452 520 21,100 698 Climbing FlightAware ADS-B
Fri 11:00:35 AM 39.7511 -103.7750 109° East 460 529 21,300 889 Climbing FlightAware ADS-B
Fri 11:00:49 AM 39.7440 -103.7390 104° East 465 535 21,500 1,364 Climbing FlightAware ADS-B
Fri 11:00:57 AM 39.7407 -103.7160 101° East 464 534 21,800 1,846 Climbing FlightAware ADS-B
Fri 11:01:28 AM 39.7335 -103.6320 96° East 465 535 22,700 1,672 Climbing FlightAware ADS-B
Fri 11:01:58 AM 39.7267 -103.5470 96° East 466 536 23,500 1,607 Climbing FlightAware ADS-B
Fri 11:02:24 AM 39.7211 -103.4760 96° East 469 540 24,200 1,393 Climbing FlightAware ADS-B
Fri 11:02:54 AM 39.7052 -103.3930 104° East 475 547 24,800 1,100 Climbing FlightAware ADS-B
Fri 11:03:24 AM 39.6873 -103.3100 106° East 480 552 25,300 984 Climbing FlightAware ADS-B
Fri 11:03:55 AM 39.6693 -103.2250 105° East 484 557 25,800 885 Climbing FlightAware ADS-B
Fri 11:04:25 AM 39.6519 -103.1390 105° East 491 565 26,200 1,100 Climbing FlightAware ADS-B
Fri 11:04:55 AM 39.6355 -103.0520 104° East 489 563 26,900 1,421 Climbing FlightAware ADS-B
Fri 11:05:03 AM 39.6314 -103.0300 104° East 490 564 27,100 1,231 Climbing FlightAware ADS-B
Fri 11:05:34 AM 39.6216 -102.9430 98° East 488 562 27,700 1,475 Climbing FlightAware ADS-B
Fri 11:06:04 AM 39.6126 -102.8540 97° East 484 557 28,600 1,600 Climbing FlightAware ADS-B
Fri 11:06:34 AM 39.6037 -102.7680 98° East 479 551 29,300 1,377 Climbing FlightAware ADS-B
Fri 11:07:05 AM 39.5945 -102.6820 98° East 476 548 30,000 1,377 Climbing FlightAware ADS-B
Fri 11:07:35 AM 39.5853 -102.5970 98° East 474 545 30,700 1,400 Climbing FlightAware ADS-B
Fri 11:08:05 AM 39.5760 -102.5130 98° East 472 543 31,400 1,377 Climbing FlightAware ADS-B
Fri 11:08:36 AM 39.5665 -102.4270 98° East 469 540 32,100 1,355 Climbing FlightAware ADS-B
Fri 11:09:07 AM 39.5570 -102.3420 98° East 467 537 32,800 818 Climbing FlightAware ADS-B
Fri 11:09:42 AM 39.5459 -102.2440 98° East 474 545 33,000 182 Climbing FlightAware ADS-B
Fri 11:10:13 AM 39.5359 -102.1570 98° East 475 547 33,000  Level FlightAware ADS-B
Fri 11:10:48 AM 39.5246 -102.0590 98° East 475 547 33,000  Level FlightAware ADS-B
Fri 11:11:21 AM 39.5143 -101.9680 98° East 475 547 33,000  Level FlightAware ADS-B
Fri 11:12:09 AM 39.4985 -101.8320 99° East 474 545 33,000  Level FlightAware ADS-B
Fri 11:12:40 AM 39.4883 -101.7450 99° East 474 545 33,000  Level FlightAware ADS-B
Fri 11:13:12 AM 39.4775 -101.6550 99° East 475 547 33,000  Level FlightAware ADS-B
Fri 11:13:44 AM 39.4668 -101.5650 99° East 475 547 33,000  Level FlightAware ADS-B
Fri 11:14:15 AM 39.4565 -101.4800 99° East 476 548 33,000  Level FlightAware ADS-B
Fri 11:14:46 AM 39.4453 -101.3920 99° East 475 547 33,000  Level FlightAware ADS-B
Fri 11:15:17 AM 39.4345 -101.3040 99° East 476 548 33,000  Level FlightAware ADS-B
Fri 11:16:12 AM 39.4158 -101.1578 99° East 475 547 33,000  Level Denver Center
Fri 11:17:14 AM 39.3964 -100.9967 99° East 475 547 33,000  Level Denver Center
Fri 11:18:16 AM 39.3764 -100.8361 99° East 475 547 33,000  Level Denver Center
Fri 11:19:18 AM 39.3528 -100.6469 99° East 477 549 33,000  Level Denver Center
Fri 11:20:20 AM 39.3328 -100.4858 99° East 477 549 33,000  Level Denver Center
Fri 11:21:22 AM 39.3075 -100.3006 100° East 473 544 33,000  Level Denver Center
Fri 11:22:24 AM 39.2872 -100.1425 99° East 469 540 33,000  Level Denver Center
Fri 11:23:26 AM 39.2625 -99.9578 100° East 469 540 33,000  Level Denver Center
Fri 11:24:40 AM 39.2411 -99.8000 100° East 468 539 33,000  Level Denver Center
Fri 11:30:25 AM 39.1021 -98.8026 100° East 459 528 33,000  Level FlightAware ADS-B
Fri 11:30:55 AM 39.0903 -98.7214 101° East 458 527 33,000  Level FlightAware ADS-B
Fri 11:31:26 AM 39.0785 -98.6401 101° East 457 526 33,000  Level FlightAware ADS-B
Fri 11:31:56 AM 39.0667 -98.5588 101° East 455 524 33,000  Level FlightAware ADS-B
Fri 11:32:34 AM 39.0520 -98.4585 101° East 454 522 33,000  Level FlightAware ADS-B
Fri 11:33:09 AM 39.0460 -98.4140 100° East 454 522 33,000  Level FlightAware ADS-B
Fri 11:33:30 AM 39.0302 -98.3122 101° East 452 520 33,000  Level FlightAware ADS-B
Fri 11:34:09 AM 39.0148 -98.2095 101° East 452 520 33,000  Level FlightAware ADS-B
Fri 11:34:39 AM 39.0027 -98.1295 101° East 452 520 33,000  Level FlightAware ADS-B
Fri 11:35:11 AM 38.9902 -98.0462 101° East 453 521 33,000  Level FlightAware ADS-B
Fri 11:35:41 AM 38.9780 -97.9660 101° East 457 526 33,000  Level FlightAware ADS-B
Fri 11:36:14 AM 38.9646 -97.8779 101° East 457 526 33,000  Level FlightAware ADS-B
Fri 11:36:30 AM 38.9597 -97.8349 98° East 456 525 33,000  Level FlightAware ADS-B
Fri 11:36:41 AM 38.9601 -97.8061 89° East 453 521 33,000  Level FlightAware ADS-B
Fri 11:36:47 AM 38.9614 -97.7909 84° East 452 520 33,000  Level FlightAware ADS-B
Fri 11:36:58 AM 38.9662 -97.7619 78° East 450 518 33,000  Level FlightAware ADS-B
Fri 11:37:28 AM 38.9844 -97.6851 73° East 450 518 33,000  Level FlightAware ADS-B
Fri 11:38:20 AM 39.0170 -97.5530 72° East 450 518 33,000  Level FlightAware ADS-B
Fri 11:38:35 AM 39.0265 -97.5141 73° East 450 518 33,000  Level FlightAware ADS-B
Fri 11:39:06 AM 39.0466 -97.4344 72° East 451 519 33,000  Level FlightAware ADS-B
Fri 11:39:37 AM 39.0660 -97.3567 72° East 451 519 33,000  Level FlightAware ADS-B
Fri 11:40:07 AM 39.0851 -97.2796 72° East 452 520 33,000  Level FlightAware ADS-B
Fri 11:40:37 AM 39.1041 -97.2025 72° East 452 520 33,000  Level FlightAware ADS-B
Fri 11:41:07 AM 39.1230 -97.1254 72° East 453 521 33,000  Level FlightAware ADS-B
Fri 11:41:37 AM 39.1420 -97.0481 72° East 454 522 33,000  Level FlightAware ADS-B
Fri 11:42:08 AM 39.1614 -96.9690 72° East 455 524 33,000  Level FlightAware ADS-B
Fri 11:42:39 AM 39.1809 -96.8890 73° East 455 524 33,000  Level FlightAware ADS-B
Fri 11:43:09 AM 39.1997 -96.8116 73° East 455 524 33,000  Level FlightAware ADS-B
Fri 11:43:40 AM 39.2192 -96.7314 73° East 455 524 33,000  Level FlightAware ADS-B
Fri 11:44:12 AM 39.2390 -96.6495 73° East 455 524 33,000  Level FlightAware ADS-B
Fri 11:44:43 AM 39.2581 -96.5701 73° East 455 524 33,000  Level FlightAware ADS-B
Fri 11:45:13 AM 39.2767 -96.4924 73° East 454 522 33,000  Level FlightAware ADS-B
Fri 11:45:43 AM 39.2953 -96.4147 73° East 453 521 33,000  Level FlightAware ADS-B
Fri 11:46:14 AM 39.3145 -96.3350 73° East 453 521 33,000  Level FlightAware ADS-B
Fri 11:46:44 AM 39.3331 -96.2562 73° East 454 522 33,000  Level FlightAware ADS-B
Fri 11:47:15 AM 39.3523 -96.1753 73° East 454 522 33,000  Level FlightAware ADS-B
Fri 11:47:48 AM 39.3720 -96.0920 73° East 454 522 33,000  Level FlightAware ADS-B
Fri 11:48:18 AM 39.3904 -96.0140 73° East 454 522 33,000  Level FlightAware ADS-B
Fri 11:48:48 AM 39.4086 -95.9356 73° East 455 524 33,000  Level FlightAware ADS-B
Fri 11:49:20 AM 39.4281 -95.8520 73° East 457 526 33,000  Level FlightAware ADS-B
Fri 11:49:50 AM 39.4464 -95.7732 73° East 457 526 33,000  Level FlightAware ADS-B
Fri 11:50:20 AM 39.4647 -95.6944 73° East 456 525 33,000  Level FlightAware ADS-B
Fri 11:50:51 AM 39.4830 -95.6156 73° East 456 525 33,000  Level FlightAware ADS-B
Fri 11:51:21 AM 39.5013 -95.5359 73° East 456 525 33,000  Level FlightAware ADS-B
Fri 11:51:52 AM 39.5195 -95.4566 73° East 456 525 33,000  Level FlightAware ADS-B
Fri 11:52:22 AM 39.5373 -95.3786 73° East 455 524 33,000  Level FlightAware ADS-B
Fri 11:52:53 AM 39.5559 -95.2968 74° East 454 522 33,000  Level FlightAware ADS-B
Fri 11:53:27 AM 39.5759 -95.2088 74° East 454 522 33,000  Level FlightAware ADS-B
Fri 11:53:57 AM 39.5934 -95.1309 74° East 454 522 33,000  Level FlightAware ADS-B
Fri 11:54:27 AM 39.6113 -95.0519 74° East 454 522 33,000  Level FlightAware ADS-B
Fri 11:54:57 AM 39.6292 -94.9724 74° East 455 524 33,000  Level FlightAware ADS-B
Fri 11:55:33 AM 39.6500 -94.8794 74° East 455 524 33,000  Level FlightAware ADS-B
Fri 11:56:04 AM 39.6679 -94.7991 74° East 455 524 33,000  Level FlightAware ADS-B
Fri 11:56:36 AM 39.6869 -94.7134 74° East 456 525 33,000  Level FlightAware ADS-B
Fri 11:57:10 AM 39.7067 -94.6241 74° East 455 524 33,000  Level FlightAware ADS-B
Fri 11:57:41 AM 39.7245 -94.5435 74° East 455 524 33,000  Level FlightAware ADS-B
Fri 11:58:18 AM 39.7459 -94.4457 74° East 455 524 33,000  Level FlightAware ADS-B
Fri 11:58:50 AM 39.7640 -94.3630 74° East 456 525 33,000  Level FlightAware ADS-B
Fri 11:59:21 AM 39.7815 -94.2828 74° East 456 525 33,000  Level FlightAware ADS-B
Fri 11:59:52 AM 39.7994 -94.2006 74° East 458 527 33,000  Level FlightAware ADS-B
Fri 12:00:22 PM 39.8171 -94.1192 74° East 460 529 33,000  Level FlightAware ADS-B
Fri 12:00:55 PM 39.8357 -94.0329 74° East 462 532 33,000  Level FlightAware ADS-B
Fri 12:01:25 PM 39.8530 -93.9522 74° East 463 533 33,000  Level FlightAware ADS-B
Fri 12:01:55 PM 39.8703 -93.8713 74° East 464 534 33,000  Level FlightAware ADS-B
Fri 12:02:26 PM 39.8877 -93.7889 75° East 463 533 33,000  Level FlightAware ADS-B
Fri 12:02:36 PM 39.8947 -93.7615 72° East 462 532 33,000  Level FlightAware ADS-B
Fri 12:03:06 PM 39.9174 -93.6833 69° East 462 532 33,000  Level FlightAware ADS-B
Fri 12:03:37 PM 39.9408 -93.6033 69° East 462 532 33,000  Level FlightAware ADS-B
Fri 12:04:08 PM 39.9639 -93.5241 69° East 463 533 33,000  Level FlightAware ADS-B
Fri 12:04:38 PM 39.9868 -93.4453 69° East 463 533 33,000  Level FlightAware ADS-B
Fri 12:05:25 PM 40.0218 -93.3240 69° East 462 532 33,000  Level FlightAware ADS-B
Fri 12:06:20 PM 40.0630 -93.1810 69° East 461 531 33,000  Level FlightAware ADS-B
Fri 12:07:04 PM 40.0950 -93.0660 70° East 460 529 33,000  Level FlightAware ADS-B
Fri 12:07:48 PM 40.1260 -92.9580 69° East 460 529 33,000  Level FlightAware ADS-B
Fri 12:08:30 PM 40.1590 -92.8420 70° East 462 532 33,000  Level FlightAware ADS-B
Fri 12:09:10 PM 40.1890 -92.7360 70° East 462 532 33,000  Level FlightAware ADS-B
Fri 12:09:44 PM 40.2130 -92.6480 70° East 462 532 33,000  Level FlightAware ADS-B
Fri 12:10:28 PM 40.2450 -92.5360 69° East 464 534 33,000  Level FlightAware ADS-B
Fri 12:11:03 PM 40.2680 -92.4510 70° East 465 535 33,000  Level FlightAware ADS-B
Fri 12:11:47 PM 40.3000 -92.3370 70° East 468 539 33,000  Level FlightAware ADS-B
Fri 12:12:28 PM 40.3260 -92.2440 70° East 468 539 33,000  Level FlightAware ADS-B
Fri 12:13:32 PM 40.3680 -92.0910 70° East 470 541 33,000  Level FlightAware ADS-B
Fri 12:14:11 PM 40.4090 -91.9380 71° East 471 542 33,000  Level FlightAware ADS-B
Fri 12:14:45 PM 40.4330 -91.8490 70° East 471 542 33,000  Level FlightAware ADS-B
Fri 12:15:27 PM 40.4650 -91.7320 70° East 472 543 33,000  Level FlightAware ADS-B
Fri 12:16:09 PM 40.4950 -91.6200 71° East 473 544 33,000  Level FlightAware ADS-B
Fri 12:16:46 PM 40.5190 -91.5350 70° East 473 544 33,000  Level FlightAware ADS-B
Fri 12:17:32 PM 40.5550 -91.4000 71° East 474 545 33,000  Level FlightAware ADS-B
Fri 12:18:15 PM 40.5830 -91.3190 66° East 475 547 33,000  Level FlightAware ADS-B
Fri 12:18:53 PM 40.6130 -91.2340 65° Northeast 475 547 33,000  Level FlightAware ADS-B
Fri 12:19:43 PM 40.6740 -91.0500 66° East 472 543 33,000  Level FlightAware ADS-B
Fri 12:19:51 PM 40.6820 -91.0290 63° Northeast 470 541 33,000 -825 Level FlightAware ADS-B
Fri 12:21:03 PM 40.7450 -90.8440 66° East 457 526 31,900 -931 Descending FlightAware ADS-B
Fri 12:21:47 PM 40.7800 -90.7370 67° East 451 519 31,200 -1,059 Descending FlightAware ADS-B
Fri 12:22:28 PM 40.8160 -90.6310 66° East 445 512 30,400 -1,063 Descending FlightAware ADS-B
Fri 12:23:06 PM 40.8460 -90.5410 66° East 443 510 29,800 -960 Descending FlightAware ADS-B
Fri 12:23:43 PM 40.8780 -90.4470 66° East 444 511 29,200 -988 Descending FlightAware ADS-B
Fri 12:24:31 PM 40.9180 -90.3250 67° East 443 510 28,400 -1,023 Descending FlightAware ADS-B
Fri 12:25:11 PM 40.9510 -90.2260 66° East 441 507 27,700 -1,000 Descending FlightAware ADS-B
Fri 12:25:55 PM 40.9860 -90.1200 66° East 444 511 27,000 -837 Descending FlightAware ADS-B
Fri 12:26:37 PM 41.0110 -90.0450 66° East 446 513 26,500 -733 Descending FlightAware ADS-B
Fri 12:27:25 PM 41.0510 -89.9210 67° East 480 552 25,900 -783 Descending FlightAware ADS-B
Fri 12:28:09 PM 41.0900 -89.8010 67° East 489 563 25,300 -1,047 Descending FlightAware ADS-B
Fri 12:28:51 PM 41.1390 -89.6500 67° East 485 558 24,400 -963 Descending FlightAware ADS-B
Fri 12:29:30 PM 41.1720 -89.5570 65° Northeast 475 547 24,000 -741 Descending FlightAware ADS-B
Fri 12:30:12 PM 41.2150 -89.4520 61° Northeast 471 542 23,400 -1,829 Descending FlightAware ADS-B
Fri 12:30:52 PM 41.2610 -89.3380 62° Northeast 463 533 21,500 -2,615 Descending FlightAware ADS-B
Fri 12:31:30 PM 41.2990 -89.2430 62° Northeast 454 522 20,000 -2,416 Descending FlightAware ADS-B
Fri 12:32:09 PM 41.3360 -89.1500 62° Northeast 444 511 18,400 -2,430 Descending FlightAware ADS-B
Fri 12:32:49 PM 41.3750 -89.0540 62° Northeast 434 499 16,800 -2,372 Descending FlightAware ADS-B
Fri 12:33:35 PM 41.4170 -88.9490 62° Northeast 424 488 15,000 -2,333 Descending FlightAware ADS-B
Fri 12:34:19 PM 41.4570 -88.8470 62° Northeast 413 475 13,300 -2,357 Descending FlightAware ADS-B
Fri 12:34:59 PM 41.4930 -88.7570 62° Northeast 404 465 11,700 -1,704 Descending FlightAware ADS-B
Fri 12:35:40 PM 41.5170 -88.6950 63° Northeast 387 445 11,000 -538 Descending FlightAware ADS-B
Fri 12:36:17 PM 41.5450 -88.6260 62° Northeast 377 434 11,000 77 Level FlightAware ADS-B
Fri 12:36:58 PM 41.5790 -88.5390 62° Northeast 374 430 11,100 -698 Climbing FlightAware ADS-B
Fri 12:37:43 PM 41.6340 -88.4230 58° Northeast 376 433 10,000 -805 Descending FlightAware ADS-B
Fri 12:38:20 PM 41.6730 -88.3570 52° Northeast 373 429 10,000  Level FlightAware ADS-B
Fri 12:39:01 PM 41.7160 -88.2830 52° Northeast 370 426 10,000  Level FlightAware ADS-B
Fri 12:39:33 PM 41.7470 -88.2300 52° Northeast 331 381 10,000 -113 Level FlightAware ADS-B
Fri 12:39:54 PM 41.7580 -88.2100 54° Northeast 320 368 9,900 -1,014 Descending FlightAware ADS-B
Fri 12:40:44 PM 41.8010 -88.1390 51° Northeast 317 365 8,800 -1,500 Descending FlightAware ADS-B
Fri 12:41:18 PM 41.8410 -88.0680 53° Northeast 312 359 7,800 -1,680 Descending FlightAware ADS-B
Fri 12:41:34 PM 41.8550 -88.0400 56° Northeast 309 356 7,400 -1,500 Descending FlightAware ADS-B
Fri 12:41:46 PM 41.8620 -88.0180 67° East 308 354 7,100 -857 Descending FlightAware ADS-B
Fri 12:42:02 PM 41.8650 -87.9890 82° East 307 353 7,000 -136 Descending FlightAware ADS-B
Fri 12:42:30 PM 41.8700 -87.9340 83° East 306 352 7,000  Level FlightAware ADS-B
Fri 12:42:55 PM 41.8750 -87.8910 81° East 291 335 7,000  Level FlightAware ADS-B
Fri 12:43:11 PM 41.8780 -87.8650 81° East 276 318 7,000  Level FlightAware ADS-B
Fri 12:43:48 PM 41.8820 -87.8240 83° East 265 305 7,000 -706 Level FlightAware ADS-B
Fri 12:44:19 PM 41.8840 -87.7720 87° East 273 314 6,200 -1,714 Descending FlightAware ADS-B
Fri 12:44:51 PM 41.8840 -87.6970 90° East 266 306 5,200 -1,500 Descending FlightAware ADS-B
Fri 12:45:31 PM 41.8950 -87.6360 76° East 256 295 4,400 -1,071 Descending FlightAware ADS-B
Fri 12:45:47 PM 41.9100 -87.6240 31° Northeast 235 270 4,200 -692 Descending FlightAware ADS-B
Fri 12:45:57 PM 41.9190 -87.6220 North 224 258 4,100 -563 Descending FlightAware ADS-B
Fri 12:46:19 PM 41.9380 -87.6350 333° Northwest 184 212 3,900 -789 Descending FlightAware ADS-B
Fri 12:46:35 PM 41.9440 -87.6520 295° West 173 199 3,600 -1,565 Descending FlightAware ADS-B
Fri 12:47:05 PM 41.9540 -87.6840 293° West 188 216 2,700 -1,241 Descending FlightAware ADS-B
Fri 12:47:33 PM 41.9620 -87.7120 291° West 176 203 2,400 -600 Descending FlightAware ADS-B
Fri 12:47:55 PM 41.9690 -87.7350 292° West 177 204 2,200 -308 Descending FlightAware ADS-B
Fri 12:48:12 PM 41.9690 -87.7520 270° West 170 196 2,200  Level FlightAware ADS-B
Fri 12:48:25 PM 41.9690 -87.7650 270° West 172 198 2,200 -545 Level FlightAware ADS-B
Fri 12:49:07 PM 41.9690 -87.8090 270° West 151 174 1,700 -621 Descending FlightAware ADS-B
Fri 12:49:23 PM 41.9690 -87.8230 270° West 147 169 1,600 -714 Descending FlightAware ADS-B
Fri 12:49:49 PM 41.9690 -87.8480 270° West 149 171 1,200 -794 Descending FlightAware ADS-B
Fri 12:50:31 PM 41.9690 -87.8870 270° West 152 175 700 -448 Descending FlightAware ADS-B
Fri 12:50:56 PM 41.9690 -87.9070 270° West 152 175 700  Level FlightAware ADS-B

Login

Don't have an account? Register now (free) for customized features, flight alerts, and more!